sensor_id;sensor_type;location;lat;lon;timestamp;temperature;humidity
20929;DHT22;21895;47.072;15.132;2023-06-14T00:02:20;15.30;99.90
20929;DHT22;21895;47.072;15.132;2023-06-14T00:04:47;15.10;99.90
20929;DHT22;21895;47.072;15.132;2023-06-14T00:07:14;15.10;99.90
20929;DHT22;21895;47.072;15.132;2023-06-14T00:09:42;15.00;99.90
20929;DHT22;21895;47.072;15.132;2023-06-14T00:12:09;15.00;99.90
20929;DHT22;21895;47.072;15.132;2023-06-14T00:14:35;15.00;99.90
20929;DHT22;21895;47.072;15.132;2023-06-14T00:17:02;15.10;99.90
20929;DHT22;21895;47.072;15.132;2023-06-14T00:19:29;15.20;99.90
20929;DHT22;21895;47.072;15.132;2023-06-14T00:21:58;15.20;99.90
20929;DHT22;21895;47.072;15.132;2023-06-14T00:24:25;15.20;99.90
20929;DHT22;21895;47.072;15.132;2023-06-14T00:26:52;15.10;99.90
20929;DHT22;21895;47.072;15.132;2023-06-14T00:29:18;15.10;99.90
20929;DHT22;21895;47.072;15.132;2023-06-14T00:31:45;15.00;99.90
20929;DHT22;21895;47.072;15.132;2023-06-14T00:34:11;15.00;99.90
20929;DHT22;21895;47.072;15.132;2023-06-14T00:36:38;15.00;99.90
20929;DHT22;21895;47.072;15.132;2023-06-14T00:39:04;15.10;99.90
20929;DHT22;21895;47.072;15.132;2023-06-14T00:41:31;15.10;99.90
20929;DHT22;21895;47.072;15.132;2023-06-14T00:43:58;15.10;99.90
20929;DHT22;21895;47.072;15.132;2023-06-14T00:46:25;15.10;99.90
20929;DHT22;21895;47.072;15.132;2023-06-14T00:48:52;15.10;99.90
20929;DHT22;21895;47.072;15.132;2023-06-14T00:51:20;15.20;99.90
20929;DHT22;21895;47.072;15.132;2023-06-14T00:53:47;15.10;99.90
20929;DHT22;21895;47.072;15.132;2023-06-14T00:56:14;15.10;99.90
20929;DHT22;21895;47.072;15.132;2023-06-14T00:58:42;15.10;99.90
20929;DHT22;21895;47.072;15.132;2023-06-14T01:01:10;15.00;99.90
20929;DHT22;21895;47.072;15.132;2023-06-14T01:03:37;14.90;99.90
20929;DHT22;21895;47.072;15.132;2023-06-14T01:06:22;14.80;99.90
20929;DHT22;21895;47.072;15.132;2023-06-14T01:13:49;14.70;99.90
20929;DHT22;21895;47.072;15.132;2023-06-14T01:16:18;14.70;99.90
20929;DHT22;21895;47.072;15.132;2023-06-14T01:18:46;14.70;99.90
20929;DHT22;21895;47.072;15.132;2023-06-14T01:21:24;14.70;99.90
20929;DHT22;21895;47.072;15.132;2023-06-14T01:23:52;14.80;99.90
20929;DHT22;21895;47.072;15.132;2023-06-14T01:26:20;14.90;99.90
20929;DHT22;21895;47.072;15.132;2023-06-14T01:28:50;14.80;99.90
20929;DHT22;21895;47.072;15.132;2023-06-14T01:31:20;14.80;99.90
20929;DHT22;21895;47.072;15.132;2023-06-14T01:33:49;14.90;99.90
20929;DHT22;21895;47.072;15.132;2023-06-14T01:36:20;15.00;99.90
20929;DHT22;21895;47.072;15.132;2023-06-14T01:38:49;15.00;99.90
20929;DHT22;21895;47.072;15.132;2023-06-14T01:41:18;14.90;99.90
20929;DHT22;21895;47.072;15.132;2023-06-14T01:43:49;15.00;99.90
20929;DHT22;21895;47.072;15.132;2023-06-14T01:46:16;15.10;99.90
20929;DHT22;21895;47.072;15.132;2023-06-14T01:48:43;15.00;99.90
20929;DHT22;21895;47.072;15.132;2023-06-14T01:51:10;14.90;99.90
20929;DHT22;21895;47.072;15.132;2023-06-14T01:53:37;14.80;99.90
20929;DHT22;21895;47.072;15.132;2023-06-14T01:56:03;14.80;99.90
20929;DHT22;21895;47.072;15.132;2023-06-14T01:58:31;14.80;99.90
20929;DHT22;21895;47.072;15.132;2023-06-14T02:00:58;14.80;99.90
20929;DHT22;21895;47.072;15.132;2023-06-14T02:03:26;14.80;99.90
20929;DHT22;21895;47.072;15.132;2023-06-14T02:05:53;14.80;99.90
20929;DHT22;21895;47.072;15.132;2023-06-14T02:08:21;14.70;99.90
20929;DHT22;21895;47.072;15.132;2023-06-14T02:10:49;14.80;99.90
20929;DHT22;21895;47.072;15.132;2023-06-14T02:13:15;14.80;99.90
20929;DHT22;21895;47.072;15.132;2023-06-14T02:15:42;14.90;99.90
20929;DHT22;21895;47.072;15.132;2023-06-14T02:18:10;15.10;99.90
20929;DHT22;21895;47.072;15.132;2023-06-14T02:20:37;15.20;99.90
20929;DHT22;21895;47.072;15.132;2023-06-14T02:23:04;15.00;99.90
20929;DHT22;21895;47.072;15.132;2023-06-14T02:25:31;14.90;99.90
20929;DHT22;21895;47.072;15.132;2023-06-14T02:27:57;14.90;99.90
20929;DHT22;21895;47.072;15.132;2023-06-14T02:30:24;14.90;99.90
20929;DHT22;21895;47.072;15.132;2023-06-14T02:32:51;15.10;99.90
20929;DHT22;21895;47.072;15.132;2023-06-14T02:35:19;15.20;99.90
20929;DHT22;21895;47.072;15.132;2023-06-14T02:37:46;15.00;99.90
20929;DHT22;21895;47.072;15.132;2023-06-14T02:40:13;15.20;99.90
20929;DHT22;21895;47.072;15.132;2023-06-14T02:42:40;15.10;99.90
20929;DHT22;21895;47.072;15.132;2023-06-14T02:45:07;14.90;99.90
20929;DHT22;21895;47.072;15.132;2023-06-14T02:47:34;14.80;99.90
20929;DHT22;21895;47.072;15.132;2023-06-14T02:50:01;14.70;99.90
20929;DHT22;21895;47.072;15.132;2023-06-14T02:52:28;14.70;99.90
20929;DHT22;21895;47.072;15.132;2023-06-14T02:54:55;14.70;99.90
20929;DHT22;21895;47.072;15.132;2023-06-14T02:57:22;14.70;99.90
20929;DHT22;21895;47.072;15.132;2023-06-14T02:59:49;14.80;99.90
20929;DHT22;21895;47.072;15.132;2023-06-14T03:02:16;14.80;99.90
20929;DHT22;21895;47.072;15.132;2023-06-14T03:04:42;14.80;99.90
20929;DHT22;21895;47.072;15.132;2023-06-14T03:07:10;14.80;99.90
20929;DHT22;21895;47.072;15.132;2023-06-14T03:09:39;14.80;99.90
20929;DHT22;21895;47.072;15.132;2023-06-14T03:12:07;14.80;99.90
20929;DHT22;21895;47.072;15.132;2023-06-14T03:14:35;14.80;99.90
20929;DHT22;21895;47.072;15.132;2023-06-14T03:17:02;14.80;99.90
20929;DHT22;21895;47.072;15.132;2023-06-14T03:19:30;14.80;99.90
20929;DHT22;21895;47.072;15.132;2023-06-14T03:21:57;15.00;99.90
20929;DHT22;21895;47.072;15.132;2023-06-14T03:24:24;14.90;99.90
20929;DHT22;21895;47.072;15.132;2023-06-14T03:26:53;14.80;99.90
20929;DHT22;21895;47.072;15.132;2023-06-14T03:29:20;14.80;99.90
20929;DHT22;21895;47.072;15.132;2023-06-14T03:32:00;14.80;99.90
20929;DHT22;21895;47.072;15.132;2023-06-14T03:34:27;14.90;99.90
20929;DHT22;21895;47.072;15.132;2023-06-14T03:36:54;14.90;99.90
20929;DHT22;21895;47.072;15.132;2023-06-14T03:39:21;14.90;99.90
20929;DHT22;21895;47.072;15.132;2023-06-14T03:41:48;14.90;99.90
20929;DHT22;21895;47.072;15.132;2023-06-14T03:44:17;14.90;99.90
20929;DHT22;21895;47.072;15.132;2023-06-14T03:46:45;14.90;99.90
20929;DHT22;21895;47.072;15.132;2023-06-14T03:49:13;14.90;99.90
20929;DHT22;21895;47.072;15.132;2023-06-14T03:51:39;14.90;99.90
20929;DHT22;21895;47.072;15.132;2023-06-14T03:54:06;14.90;99.90
20929;DHT22;21895;47.072;15.132;2023-06-14T03:58:04;14.90;99.90
20929;DHT22;21895;47.072;15.132;2023-06-14T04:00:31;14.90;99.90
20929;DHT22;21895;47.072;15.132;2023-06-14T04:02:58;15.00;99.90
20929;DHT22;21895;47.072;15.132;2023-06-14T04:05:25;15.10;99.90
20929;DHT22;21895;47.072;15.132;2023-06-14T04:07:52;15.20;99.90
20929;DHT22;21895;47.072;15.132;2023-06-14T04:10:22;15.30;99.90
20929;DHT22;21895;47.072;15.132;2023-06-14T04:12:48;15.40;99.90
20929;DHT22;21895;47.072;15.132;2023-06-14T04:15:15;15.40;99.90
20929;DHT22;21895;47.072;15.132;2023-06-14T04:17:47;15.30;99.90
20929;DHT22;21895;47.072;15.132;2023-06-14T04:20:14;15.20;99.90
20929;DHT22;21895;47.072;15.132;2023-06-14T04:22:41;15.20;99.90
20929;DHT22;21895;47.072;15.132;2023-06-14T04:25:09;15.10;99.90
20929;DHT22;21895;47.072;15.132;2023-06-14T04:27:35;15.10;99.90
20929;DHT22;21895;47.072;15.132;2023-06-14T04:30:07;15.20;99.90
20929;DHT22;21895;47.072;15.132;2023-06-14T04:32:34;15.20;99.90
20929;DHT22;21895;47.072;15.132;2023-06-14T04:35:08;15.20;99.90
20929;DHT22;21895;47.072;15.132;2023-06-14T04:37:35;15.30;99.90
20929;DHT22;21895;47.072;15.132;2023-06-14T04:40:06;15.50;99.90
20929;DHT22;21895;47.072;15.132;2023-06-14T04:42:37;15.60;99.90
20929;DHT22;21895;47.072;15.132;2023-06-14T04:45:07;15.60;99.90
20929;DHT22;21895;47.072;15.132;2023-06-14T04:47:35;15.70;99.90
20929;DHT22;21895;47.072;15.132;2023-06-14T04:50:03;15.80;99.90
20929;DHT22;21895;47.072;15.132;2023-06-14T04:52:30;15.90;99.90
20929;DHT22;21895;47.072;15.132;2023-06-14T04:54:57;16.00;99.90
20929;DHT22;21895;47.072;15.132;2023-06-14T04:57:24;16.10;99.90
20929;DHT22;21895;47.072;15.132;2023-06-14T04:59:51;16.00;99.90
20929;DHT22;21895;47.072;15.132;2023-06-14T05:02:24;16.20;99.90
20929;DHT22;21895;47.072;15.132;2023-06-14T05:04:51;16.20;99.90
20929;DHT22;21895;47.072;15.132;2023-06-14T05:07:18;16.30;99.90
20929;DHT22;21895;47.072;15.132;2023-06-14T05:09:45;16.10;99.90
20929;DHT22;21895;47.072;15.132;2023-06-14T05:12:11;16.00;99.90
20929;DHT22;21895;47.072;15.132;2023-06-14T05:14:38;16.10;99.90
20929;DHT22;21895;47.072;15.132;2023-06-14T05:17:05;15.90;99.90
20929;DHT22;21895;47.072;15.132;2023-06-14T05:19:32;15.90;99.90
20929;DHT22;21895;47.072;15.132;2023-06-14T05:21:58;15.90;99.90
20929;DHT22;21895;47.072;15.132;2023-06-14T05:24:25;15.80;99.90
20929;DHT22;21895;47.072;15.132;2023-06-14T05:26:54;15.70;99.90
20929;DHT22;21895;47.072;15.132;2023-06-14T05:29:23;15.70;99.90
20929;DHT22;21895;47.072;15.132;2023-06-14T05:31:50;15.70;99.90
20929;DHT22;21895;47.072;15.132;2023-06-14T05:34:16;15.80;99.90
20929;DHT22;21895;47.072;15.132;2023-06-14T05:36:43;16.00;99.90
20929;DHT22;21895;47.072;15.132;2023-06-14T05:39:09;16.00;99.90
20929;DHT22;21895;47.072;15.132;2023-06-14T05:41:36;15.80;99.90
20929;DHT22;21895;47.072;15.132;2023-06-14T05:44:03;15.80;99.90
20929;DHT22;21895;47.072;15.132;2023-06-14T05:46:29;15.80;99.90
20929;DHT22;21895;47.072;15.132;2023-06-14T05:48:56;15.90;99.90
20929;DHT22;21895;47.072;15.132;2023-06-14T05:51:23;16.00;99.90
20929;DHT22;21895;47.072;15.132;2023-06-14T05:53:51;15.90;99.90
20929;DHT22;21895;47.072;15.132;2023-06-14T05:56:18;15.90;99.90
20929;DHT22;21895;47.072;15.132;2023-06-14T05:58:45;15.80;99.90
20929;DHT22;21895;47.072;15.132;2023-06-14T06:01:13;15.90;99.90
20929;DHT22;21895;47.072;15.132;2023-06-14T06:03:40;15.80;99.90
20929;DHT22;21895;47.072;15.132;2023-06-14T06:06:07;15.80;99.90
20929;DHT22;21895;47.072;15.132;2023-06-14T06:08:34;15.80;99.90
20929;DHT22;21895;47.072;15.132;2023-06-14T06:11:01;15.90;99.90
20929;DHT22;21895;47.072;15.132;2023-06-14T06:13:27;15.90;99.90
20929;DHT22;21895;47.072;15.132;2023-06-14T06:15:54;15.90;99.90
20929;DHT22;21895;47.072;15.132;2023-06-14T06:18:22;15.90;99.90
20929;DHT22;21895;47.072;15.132;2023-06-14T06:20:48;15.90;99.90
20929;DHT22;21895;47.072;15.132;2023-06-14T06:23:15;16.00;99.90
20929;DHT22;21895;47.072;15.132;2023-06-14T06:25:42;16.10;99.90
20929;DHT22;21895;47.072;15.132;2023-06-14T06:28:09;16.30;99.90
20929;DHT22;21895;47.072;15.132;2023-06-14T06:30:35;16.40;99.90
20929;DHT22;21895;47.072;15.132;2023-06-14T06:33:02;16.60;99.90
20929;DHT22;21895;47.072;15.132;2023-06-14T06:35:29;16.60;99.90
20929;DHT22;21895;47.072;15.132;2023-06-14T06:37:56;16.60;99.90
20929;DHT22;21895;47.072;15.132;2023-06-14T06:40:23;16.50;99.90
20929;DHT22;21895;47.072;15.132;2023-06-14T06:42:49;16.50;99.90
20929;DHT22;21895;47.072;15.132;2023-06-14T06:45:16;16.50;99.90
20929;DHT22;21895;47.072;15.132;2023-06-14T06:47:43;16.50;99.90
20929;DHT22;21895;47.072;15.132;2023-06-14T06:50:10;16.50;99.90
20929;DHT22;21895;47.072;15.132;2023-06-14T06:52:36;16.50;99.90
20929;DHT22;21895;47.072;15.132;2023-06-14T06:55:03;16.50;99.90
20929;DHT22;21895;47.072;15.132;2023-06-14T06:57:30;16.50;99.90
20929;DHT22;21895;47.072;15.132;2023-06-14T06:59:57;16.50;99.90
20929;DHT22;21895;47.072;15.132;2023-06-14T07:02:23;16.50;99.90
20929;DHT22;21895;47.072;15.132;2023-06-14T07:04:50;16.60;99.90
20929;DHT22;21895;47.072;15.132;2023-06-14T07:07:17;16.60;99.90
20929;DHT22;21895;47.072;15.132;2023-06-14T07:09:44;16.60;99.90
20929;DHT22;21895;47.072;15.132;2023-06-14T07:12:11;16.60;99.90
20929;DHT22;21895;47.072;15.132;2023-06-14T07:14:38;16.50;99.90
20929;DHT22;21895;47.072;15.132;2023-06-14T07:17:04;16.50;99.90
20929;DHT22;21895;47.072;15.132;2023-06-14T07:19:31;16.50;99.90
20929;DHT22;21895;47.072;15.132;2023-06-14T07:21:57;16.50;99.90
20929;DHT22;21895;47.072;15.132;2023-06-14T07:24:24;16.60;99.90
20929;DHT22;21895;47.072;15.132;2023-06-14T07:26:51;16.60;99.90
20929;DHT22;21895;47.072;15.132;2023-06-14T07:29:17;16.70;99.90
20929;DHT22;21895;47.072;15.132;2023-06-14T07:31:44;16.60;99.90
20929;DHT22;21895;47.072;15.132;2023-06-14T07:34:10;16.50;99.90
20929;DHT22;21895;47.072;15.132;2023-06-14T07:36:37;16.50;99.90
20929;DHT22;21895;47.072;15.132;2023-06-14T07:39:04;16.50;99.90
20929;DHT22;21895;47.072;15.132;2023-06-14T07:41:32;16.50;99.90
20929;DHT22;21895;47.072;15.132;2023-06-14T07:43:59;16.40;99.90
20929;DHT22;21895;47.072;15.132;2023-06-14T07:46:25;16.40;99.90
20929;DHT22;21895;47.072;15.132;2023-06-14T07:48:52;16.40;99.90
20929;DHT22;21895;47.072;15.132;2023-06-14T07:51:19;16.40;99.90
20929;DHT22;21895;47.072;15.132;2023-06-14T07:53:45;16.50;99.90
20929;DHT22;21895;47.072;15.132;2023-06-14T07:56:13;16.50;99.90
20929;DHT22;21895;47.072;15.132;2023-06-14T07:58:39;16.40;99.90
20929;DHT22;21895;47.072;15.132;2023-06-14T08:01:06;16.40;99.90
20929;DHT22;21895;47.072;15.132;2023-06-14T08:03:34;16.30;99.90
20929;DHT22;21895;47.072;15.132;2023-06-14T08:06:00;16.30;99.90
20929;DHT22;21895;47.072;15.132;2023-06-14T08:08:27;16.20;99.90
20929;DHT22;21895;47.072;15.132;2023-06-14T08:10:54;16.10;99.90
20929;DHT22;21895;47.072;15.132;2023-06-14T08:13:21;16.20;99.90
20929;DHT22;21895;47.072;15.132;2023-06-14T08:15:47;16.20;99.90
20929;DHT22;21895;47.072;15.132;2023-06-14T08:18:14;16.20;99.90
20929;DHT22;21895;47.072;15.132;2023-06-14T08:20:41;16.30;99.90
20929;DHT22;21895;47.072;15.132;2023-06-14T08:23:07;16.30;99.90
20929;DHT22;21895;47.072;15.132;2023-06-14T08:25:35;16.20;99.90
20929;DHT22;21895;47.072;15.132;2023-06-14T08:28:01;16.20;99.90
20929;DHT22;21895;47.072;15.132;2023-06-14T08:30:28;16.00;99.90
20929;DHT22;21895;47.072;15.132;2023-06-14T08:32:54;15.80;99.90
20929;DHT22;21895;47.072;15.132;2023-06-14T08:35:40;15.70;99.90
20929;DHT22;21895;47.072;15.132;2023-06-14T08:38:06;15.60;99.90
20929;DHT22;21895;47.072;15.132;2023-06-14T08:40:37;15.60;99.90
20929;DHT22;21895;47.072;15.132;2023-06-14T08:43:04;15.50;99.90
20929;DHT22;21895;47.072;15.132;2023-06-14T08:45:31;15.60;99.90
20929;DHT22;21895;47.072;15.132;2023-06-14T08:47:59;15.60;99.90
20929;DHT22;21895;47.072;15.132;2023-06-14T08:50:27;15.70;99.90
20929;DHT22;21895;47.072;15.132;2023-06-14T08:53:00;15.60;99.90
20929;DHT22;21895;47.072;15.132;2023-06-14T08:55:29;15.60;99.90
20929;DHT22;21895;47.072;15.132;2023-06-14T08:58:01;15.70;99.90
20929;DHT22;21895;47.072;15.132;2023-06-14T09:00:29;15.80;99.90
20929;DHT22;21895;47.072;15.132;2023-06-14T09:02:56;16.00;99.90
20929;DHT22;21895;47.072;15.132;2023-06-14T09:05:27;16.10;99.90
20929;DHT22;21895;47.072;15.132;2023-06-14T09:07:54;16.20;99.90
20929;DHT22;21895;47.072;15.132;2023-06-14T09:10:22;16.30;99.90
20929;DHT22;21895;47.072;15.132;2023-06-14T09:12:51;16.40;99.90
20929;DHT22;21895;47.072;15.132;2023-06-14T09:15:17;16.60;99.90
20929;DHT22;21895;47.072;15.132;2023-06-14T09:17:44;16.80;99.90
20929;DHT22;21895;47.072;15.132;2023-06-14T09:20:11;17.00;99.90
20929;DHT22;21895;47.072;15.132;2023-06-14T09:22:44;17.30;99.90
20929;DHT22;21895;47.072;15.132;2023-06-14T09:25:11;17.50;99.90
20929;DHT22;21895;47.072;15.132;2023-06-14T09:28:06;17.70;99.90
20929;DHT22;21895;47.072;15.132;2023-06-14T09:30:34;17.90;99.90
20929;DHT22;21895;47.072;15.132;2023-06-14T09:33:02;18.00;99.90
20929;DHT22;21895;47.072;15.132;2023-06-14T09:35:31;18.10;99.90
20929;DHT22;21895;47.072;15.132;2023-06-14T09:37:58;18.10;99.90
20929;DHT22;21895;47.072;15.132;2023-06-14T09:40:26;18.20;99.90
20929;DHT22;21895;47.072;15.132;2023-06-14T09:42:53;18.20;99.90
20929;DHT22;21895;47.072;15.132;2023-06-14T09:45:21;18.30;99.90
20929;DHT22;21895;47.072;15.132;2023-06-14T09:47:51;18.40;99.90
20929;DHT22;21895;47.072;15.132;2023-06-14T09:50:34;18.40;99.90
20929;DHT22;21895;47.072;15.132;2023-06-14T09:53:08;18.50;99.90
20929;DHT22;21895;47.072;15.132;2023-06-14T09:55:40;18.80;99.90
20929;DHT22;21895;47.072;15.132;2023-06-14T09:58:10;19.00;99.90
20929;DHT22;21895;47.072;15.132;2023-06-14T10:00:39;19.30;99.90
20929;DHT22;21895;47.072;15.132;2023-06-14T10:03:15;19.70;99.90
20929;DHT22;21895;47.072;15.132;2023-06-14T10:05:48;19.90;99.90
20929;DHT22;21895;47.072;15.132;2023-06-14T10:08:19;20.00;99.90
20929;DHT22;21895;47.072;15.132;2023-06-14T10:10:50;20.30;99.90
20929;DHT22;21895;47.072;15.132;2023-06-14T10:13:17;20.20;99.90
20929;DHT22;21895;47.072;15.132;2023-06-14T10:16:11;20.20;99.90
20929;DHT22;21895;47.072;15.132;2023-06-14T10:24:48;20.30;99.90
20929;DHT22;21895;47.072;15.132;2023-06-14T10:27:16;20.70;99.90
20929;DHT22;21895;47.072;15.132;2023-06-14T10:31:06;20.90;99.60
20929;DHT22;21895;47.072;15.132;2023-06-14T10:37:07;21.40;99.30
20929;DHT22;21895;47.072;15.132;2023-06-14T10:39:42;21.40;97.40
20929;DHT22;21895;47.072;15.132;2023-06-14T10:42:12;21.50;98.70
20929;DHT22;21895;47.072;15.132;2023-06-14T10:44:41;21.70;98.80
20929;DHT22;21895;47.072;15.132;2023-06-14T10:47:29;21.90;98.90
20929;DHT22;21895;47.072;15.132;2023-06-14T10:50:08;21.80;97.40
20929;DHT22;21895;47.072;15.132;2023-06-14T10:52:40;21.50;97.90
20929;DHT22;21895;47.072;15.132;2023-06-14T10:55:15;21.50;98.70
20929;DHT22;21895;47.072;15.132;2023-06-14T10:57:55;21.30;98.10
20929;DHT22;21895;47.072;15.132;2023-06-14T11:00:25;20.80;98.00
20929;DHT22;21895;47.072;15.132;2023-06-14T11:05:21;20.50;99.80
20929;DHT22;21895;47.072;15.132;2023-06-14T11:08:15;20.20;99.90
20929;DHT22;21895;47.072;15.132;2023-06-14T11:11:00;20.00;99.90
20929;DHT22;21895;47.072;15.132;2023-06-14T11:13:28;19.90;99.90
20929;DHT22;21895;47.072;15.132;2023-06-14T11:15:57;19.90;99.90
20929;DHT22;21895;47.072;15.132;2023-06-14T11:18:24;19.90;99.90
20929;DHT22;21895;47.072;15.132;2023-06-14T11:20:53;20.00;99.90
20929;DHT22;21895;47.072;15.132;2023-06-14T11:23:22;19.90;99.90
20929;DHT22;21895;47.072;15.132;2023-06-14T11:25:52;19.90;99.90
20929;DHT22;21895;47.072;15.132;2023-06-14T11:28:18;20.10;99.90
20929;DHT22;21895;47.072;15.132;2023-06-14T11:30:48;20.30;99.90
20929;DHT22;21895;47.072;15.132;2023-06-14T11:33:18;20.40;99.70
20929;DHT22;21895;47.072;15.132;2023-06-14T11:35:45;20.30;99.90
20929;DHT22;21895;47.072;15.132;2023-06-14T11:38:11;20.20;99.90
20929;DHT22;21895;47.072;15.132;2023-06-14T11:40:39;20.10;98.80
20929;DHT22;21895;47.072;15.132;2023-06-14T11:43:05;19.80;99.90
20929;DHT22;21895;47.072;15.132;2023-06-14T11:45:32;19.70;99.90
20929;DHT22;21895;47.072;15.132;2023-06-14T11:47:59;19.60;99.90
20929;DHT22;21895;47.072;15.132;2023-06-14T11:50:26;19.70;99.90
20929;DHT22;21895;47.072;15.132;2023-06-14T11:52:57;20.00;99.90
20929;DHT22;21895;47.072;15.132;2023-06-14T11:55:38;19.90;99.90
20929;DHT22;21895;47.072;15.132;2023-06-14T11:58:06;19.90;99.90
20929;DHT22;21895;47.072;15.132;2023-06-14T12:00:35;19.70;99.70
20929;DHT22;21895;47.072;15.132;2023-06-14T12:03:03;19.70;99.90
20929;DHT22;21895;47.072;15.132;2023-06-14T12:05:29;19.50;99.90
20929;DHT22;21895;47.072;15.132;2023-06-14T12:08:01;19.60;99.90
20929;DHT22;21895;47.072;15.132;2023-06-14T12:10:39;19.50;99.90
20929;DHT22;21895;47.072;15.132;2023-06-14T12:13:09;19.50;99.90
20929;DHT22;21895;47.072;15.132;2023-06-14T12:15:37;19.60;99.90
20929;DHT22;21895;47.072;15.132;2023-06-14T12:18:06;19.70;99.90
20929;DHT22;21895;47.072;15.132;2023-06-14T12:20:34;19.70;99.90
20929;DHT22;21895;47.072;15.132;2023-06-14T12:23:03;19.60;99.90
20929;DHT22;21895;47.072;15.132;2023-06-14T12:25:35;19.30;99.90
20929;DHT22;21895;47.072;15.132;2023-06-14T12:28:09;19.20;99.90
20929;DHT22;21895;47.072;15.132;2023-06-14T12:30:37;19.20;99.90
20929;DHT22;21895;47.072;15.132;2023-06-14T12:33:04;19.20;99.90
20929;DHT22;21895;47.072;15.132;2023-06-14T12:35:31;19.30;99.90
20929;DHT22;21895;47.072;15.132;2023-06-14T12:37:58;19.30;99.90
20929;DHT22;21895;47.072;15.132;2023-06-14T12:40:25;19.50;99.90
20929;DHT22;21895;47.072;15.132;2023-06-14T12:42:52;19.60;99.90
20929;DHT22;21895;47.072;15.132;2023-06-14T12:45:19;19.80;99.90
20929;DHT22;21895;47.072;15.132;2023-06-14T12:47:45;20.10;99.90
20929;DHT22;21895;47.072;15.132;2023-06-14T12:50:12;20.10;99.90
20929;DHT22;21895;47.072;15.132;2023-06-14T12:52:39;20.10;99.90
20929;DHT22;21895;47.072;15.132;2023-06-14T12:55:06;20.00;99.90
20929;DHT22;21895;47.072;15.132;2023-06-14T12:57:33;20.00;99.90
20929;DHT22;21895;47.072;15.132;2023-06-14T13:00:03;20.00;99.90
20929;DHT22;21895;47.072;15.132;2023-06-14T13:02:30;20.00;99.90
20929;DHT22;21895;47.072;15.132;2023-06-14T13:04:57;19.70;99.90
20929;DHT22;21895;47.072;15.132;2023-06-14T13:07:24;19.50;99.90
20929;DHT22;21895;47.072;15.132;2023-06-14T13:09:51;19.40;99.90
20929;DHT22;21895;47.072;15.132;2023-06-14T13:12:17;19.40;99.90
20929;DHT22;21895;47.072;15.132;2023-06-14T13:14:44;19.20;99.90
20929;DHT22;21895;47.072;15.132;2023-06-14T13:17:11;19.00;99.90
20929;DHT22;21895;47.072;15.132;2023-06-14T13:19:37;19.00;99.90
20929;DHT22;21895;47.072;15.132;2023-06-14T13:22:04;19.00;99.90
20929;DHT22;21895;47.072;15.132;2023-06-14T13:24:31;19.30;99.90
20929;DHT22;21895;47.072;15.132;2023-06-14T13:26:58;19.50;99.90
20929;DHT22;21895;47.072;15.132;2023-06-14T13:29:24;19.50;99.90
20929;DHT22;21895;47.072;15.132;2023-06-14T13:31:52;19.70;99.90
20929;DHT22;21895;47.072;15.132;2023-06-14T13:34:19;19.60;99.90
20929;DHT22;21895;47.072;15.132;2023-06-14T13:36:46;19.50;99.90
20929;DHT22;21895;47.072;15.132;2023-06-14T13:39:15;19.60;99.90
20929;DHT22;21895;47.072;15.132;2023-06-14T13:41:42;19.70;99.90
20929;DHT22;21895;47.072;15.132;2023-06-14T13:44:08;19.80;99.90
20929;DHT22;21895;47.072;15.132;2023-06-14T13:46:38;19.90;99.90
20929;DHT22;21895;47.072;15.132;2023-06-14T13:49:05;19.80;99.90
20929;DHT22;21895;47.072;15.132;2023-06-14T13:51:32;19.80;99.90
20929;DHT22;21895;47.072;15.132;2023-06-14T13:53:59;19.90;99.90
20929;DHT22;21895;47.072;15.132;2023-06-14T13:56:26;20.00;99.90
20929;DHT22;21895;47.072;15.132;2023-06-14T13:58:53;19.90;99.90
20929;DHT22;21895;47.072;15.132;2023-06-14T14:01:20;19.80;99.90
20929;DHT22;21895;47.072;15.132;2023-06-14T14:03:47;19.80;99.90
20929;DHT22;21895;47.072;15.132;2023-06-14T14:06:15;20.10;99.90
20929;DHT22;21895;47.072;15.132;2023-06-14T14:08:42;20.00;99.90
20929;DHT22;21895;47.072;15.132;2023-06-14T14:11:10;20.10;99.90
20929;DHT22;21895;47.072;15.132;2023-06-14T14:13:36;19.90;99.90
20929;DHT22;21895;47.072;15.132;2023-06-14T14:16:04;19.80;99.90
20929;DHT22;21895;47.072;15.132;2023-06-14T14:18:31;19.90;99.90
20929;DHT22;21895;47.072;15.132;2023-06-14T14:20:58;19.90;99.90
20929;DHT22;21895;47.072;15.132;2023-06-14T14:23:26;19.90;99.90
20929;DHT22;21895;47.072;15.132;2023-06-14T14:25:53;19.90;99.90
20929;DHT22;21895;47.072;15.132;2023-06-14T14:28:19;19.90;99.90
20929;DHT22;21895;47.072;15.132;2023-06-14T14:30:47;19.90;99.90
20929;DHT22;21895;47.072;15.132;2023-06-14T14:33:14;19.90;99.90
20929;DHT22;21895;47.072;15.132;2023-06-14T14:35:44;19.80;99.90
20929;DHT22;21895;47.072;15.132;2023-06-14T14:38:14;19.90;99.90
20929;DHT22;21895;47.072;15.132;2023-06-14T14:40:44;19.90;99.90
20929;DHT22;21895;47.072;15.132;2023-06-14T14:43:11;19.90;99.90
20929;DHT22;21895;47.072;15.132;2023-06-14T14:45:38;20.00;99.10
20929;DHT22;21895;47.072;15.132;2023-06-14T14:48:07;20.00;99.90
20929;DHT22;21895;47.072;15.132;2023-06-14T14:50:34;20.10;99.90
20929;DHT22;21895;47.072;15.132;2023-06-14T14:53:00;20.20;99.70
20929;DHT22;21895;47.072;15.132;2023-06-14T14:55:27;20.60;99.20
20929;DHT22;21895;47.072;15.132;2023-06-14T14:57:54;20.60;99.70
20929;DHT22;21895;47.072;15.132;2023-06-14T15:00:20;20.60;99.40
20929;DHT22;21895;47.072;15.132;2023-06-14T15:02:47;20.40;98.10
20929;DHT22;21895;47.072;15.132;2023-06-14T15:05:14;20.30;98.90
20929;DHT22;21895;47.072;15.132;2023-06-14T15:07:40;20.30;99.00
20929;DHT22;21895;47.072;15.132;2023-06-14T15:10:07;20.50;99.20
20929;DHT22;21895;47.072;15.132;2023-06-14T15:12:35;20.70;99.30
20929;DHT22;21895;47.072;15.132;2023-06-14T15:15:03;20.80;99.00
20929;DHT22;21895;47.072;15.132;2023-06-14T15:17:30;21.10;99.00
20929;DHT22;21895;47.072;15.132;2023-06-14T15:19:56;21.10;98.10
20929;DHT22;21895;47.072;15.132;2023-06-14T15:22:23;21.10;98.10
20929;DHT22;21895;47.072;15.132;2023-06-14T15:24:50;21.10;98.20
20929;DHT22;21895;47.072;15.132;2023-06-14T15:27:16;21.00;98.10
20929;DHT22;21895;47.072;15.132;2023-06-14T15:29:44;20.90;98.00
20929;DHT22;21895;47.072;15.132;2023-06-14T15:32:11;20.70;98.10
20929;DHT22;21895;47.072;15.132;2023-06-14T15:34:37;20.70;98.40
20929;DHT22;21895;47.072;15.132;2023-06-14T15:37:08;20.50;98.00
20929;DHT22;21895;47.072;15.132;2023-06-14T15:39:35;20.50;98.60
20929;DHT22;21895;47.072;15.132;2023-06-14T15:42:02;20.50;98.70